createdAt,value
2018-03-06T00:01:21.366Z,1.80
2018-03-06T00:03:37.916Z,1.70
2018-03-06T00:05:38.936Z,1.60
2018-03-06T00:07:39.927Z,1.60
2018-03-06T00:09:40.926Z,1.60
2018-03-06T00:11:42.828Z,1.60
2018-03-06T00:13:51.677Z,1.70
2018-03-06T00:15:52.837Z,1.60
2018-03-06T00:17:53.883Z,1.60
2018-03-06T00:19:54.862Z,1.60
2018-03-06T00:21:56.684Z,1.70
2018-03-06T00:23:57.866Z,1.80
2018-03-06T00:25:58.963Z,1.80
2018-03-06T00:28:00.034Z,1.80
2018-03-06T00:32:29.136Z,1.80
2018-03-06T00:34:30.120Z,1.80
2018-03-06T00:36:31.084Z,1.80
2018-03-06T00:41:18.103Z,1.60
2018-03-06T00:46:02.556Z,1.50
2018-03-06T00:48:03.786Z,1.40
2018-03-06T00:50:04.828Z,1.40
2018-03-06T00:52:05.872Z,1.50
2018-03-06T00:54:07.559Z,1.50
2018-03-06T00:58:37.954Z,1.50
2018-03-06T01:00:42.307Z,1.60
2018-03-06T01:02:44.097Z,1.50
2018-03-06T01:04:47.849Z,1.60
2018-03-06T01:06:50.465Z,1.70
2018-03-06T01:09:08.712Z,1.70
2018-03-06T01:11:12.335Z,1.70
2018-03-06T01:13:15.316Z,1.70
2018-03-06T01:15:16.518Z,1.80
2018-03-06T01:17:39.124Z,1.80
2018-03-06T01:19:40.360Z,1.80
2018-03-06T01:22:08.990Z,1.80
2018-03-06T01:26:38.278Z,1.80
2018-03-06T01:28:39.352Z,1.60
2018-03-06T01:30:40.339Z,1.60
2018-03-06T01:35:12.330Z,1.50
2018-03-06T01:37:13.399Z,1.50
2018-03-06T01:39:14.436Z,1.50
2018-03-06T01:41:15.432Z,1.50
2018-03-06T01:43:20.143Z,1.50
2018-03-06T01:48:05.166Z,1.50
2018-03-06T01:50:11.955Z,1.50
2018-03-06T01:52:13.127Z,1.50
2018-03-06T01:56:41.688Z,1.50
2018-03-06T01:58:45.109Z,1.50
2018-03-06T02:00:47.352Z,1.50
2018-03-06T02:02:48.468Z,1.50
2018-03-06T02:04:54.891Z,1.60
2018-03-06T02:06:56.622Z,1.60
2018-03-06T02:08:57.718Z,1.50
2018-03-06T02:10:59.887Z,1.50
2018-03-06T02:13:01.788Z,1.50
2018-03-06T02:15:02.903Z,1.50
2018-03-06T02:19:32.036Z,1.50
2018-03-06T02:21:33.045Z,1.40
2018-03-06T02:23:34.097Z,1.40
2018-03-06T03:07:13.801Z,1.40
2018-03-06T03:09:37.369Z,1.00
2018-03-06T03:11:38.409Z,1.00
2018-03-06T03:16:09.995Z,0.90
2018-03-06T03:18:11.362Z,0.90
2018-03-06T03:20:12.376Z,0.80
2018-03-06T03:22:13.377Z,0.80
2018-03-06T03:24:17.206Z,0.80
2018-03-06T03:26:38.152Z,0.80
2018-03-06T03:31:19.912Z,0.80
2018-03-06T03:33:21.420Z,0.70
2018-03-06T03:35:22.874Z,0.70
2018-03-06T03:37:24.541Z,0.60
2018-03-06T03:41:49.263Z,0.60
2018-03-06T03:43:50.515Z,0.70
2018-03-06T03:45:51.715Z,0.60
2018-03-06T03:47:53.096Z,0.60
2018-03-06T03:49:59.195Z,0.60
2018-03-06T03:52:11.940Z,0.60
2018-03-06T03:54:21.637Z,0.60
2018-03-06T03:56:22.898Z,0.70
2018-03-06T03:58:24.059Z,0.60
2018-03-06T04:00:36.088Z,0.60
2018-03-06T04:02:39.799Z,0.60
2018-03-06T04:04:41.208Z,0.60
2018-03-06T04:08:58.841Z,0.60
2018-03-06T04:11:08.165Z,0.50
2018-03-06T04:13:09.504Z,0.50
2018-03-06T04:17:27.753Z,0.50
2018-03-06T04:19:33.096Z,0.40
2018-03-06T04:21:34.370Z,0.40
2018-03-06T04:23:35.585Z,0.50
2018-03-06T04:25:39.305Z,0.40
2018-03-06T04:27:40.697Z,0.40
2018-03-06T04:29:41.888Z,0.40
2018-03-06T04:34:01.018Z,0.40
2018-03-06T04:36:02.261Z,0.40
2018-03-06T04:38:03.318Z,0.30
2018-03-06T04:40:04.482Z,0.30
2018-03-06T04:42:05.633Z,0.30
2018-03-06T04:49:02.694Z,0.20
2018-03-06T04:51:37.886Z,0.20
2018-03-06T04:56:16.658Z,0.00
2018-03-06T04:58:39.576Z,0.10
2018-03-06T05:00:40.887Z,0.00
2018-03-06T05:02:42.135Z,0.00
2018-03-06T05:05:06.280Z,0.00
2018-03-06T05:07:27.467Z,0.00
2018-03-06T05:09:37.719Z,0.00
2018-03-06T05:11:38.921Z,-0.10
2018-03-06T05:13:40.132Z,0.00
2018-03-06T05:15:41.371Z,0.00
2018-03-06T05:17:42.470Z,0.00
2018-03-06T05:19:54.945Z,0.00
2018-03-06T05:22:11.012Z,-0.10
2018-03-06T05:24:12.175Z,-0.10
2018-03-06T05:26:13.363Z,-0.20
2018-03-06T05:28:14.485Z,-0.20
2018-03-06T05:30:15.562Z,-0.20
2018-03-06T05:32:18.358Z,-0.30
2018-03-06T05:34:19.448Z,-0.20
2018-03-06T05:36:44.998Z,-0.20
2018-03-06T05:41:13.880Z,-0.20
2018-03-06T05:43:19.280Z,-0.20
2018-03-06T05:45:25.650Z,-0.20
2018-03-06T05:47:26.788Z,-0.20
2018-03-06T05:49:34.252Z,-0.20
2018-03-06T05:51:37.311Z,-0.20
2018-03-06T05:53:38.585Z,-0.10
2018-03-06T05:55:39.842Z,-0.10
2018-03-06T05:58:07.165Z,-0.10
2018-03-06T06:00:22.605Z,-0.10
2018-03-06T06:02:23.768Z,-0.10
2018-03-06T06:04:24.822Z,0.00
2018-03-06T06:06:27.226Z,0.00
2018-03-06T06:08:28.325Z,-0.10
2018-03-06T06:10:30.931Z,0.00
2018-03-06T06:12:34.710Z,0.00
2018-03-06T06:14:35.919Z,0.00
2018-03-06T06:16:36.973Z,-0.10
2018-03-06T06:18:38.008Z,0.00
2018-03-06T06:20:39.069Z,0.00
2018-03-06T06:22:42.913Z,0.00
2018-03-06T06:24:44.765Z,0.00
2018-03-06T06:26:47.577Z,0.00
2018-03-06T06:28:53.524Z,0.00
2018-03-06T06:30:54.755Z,0.10
2018-03-06T06:32:55.791Z,0.10
2018-03-06T06:34:56.878Z,0.10
2018-03-06T06:36:59.036Z,0.10
2018-03-06T06:39:00.215Z,0.20
2018-03-06T06:41:08.596Z,0.20
2018-03-06T06:43:09.826Z,0.30
2018-03-06T06:47:27.540Z,0.40
2018-03-06T06:49:36.800Z,0.50
2018-03-06T06:51:37.891Z,0.60
2018-03-06T06:53:38.910Z,0.70
2018-03-06T06:55:39.979Z,0.80
2018-03-06T06:57:41.043Z,1.00
2018-03-06T06:59:42.083Z,1.20
2018-03-06T07:01:43.102Z,1.40
2018-03-06T07:03:46.196Z,1.60
2018-03-06T07:05:47.956Z,1.90
2018-03-06T07:13:11.682Z,2.40
2018-03-06T07:15:23.190Z,2.80
2018-03-06T07:22:27.959Z,3.30
2018-03-06T07:32:16.502Z,4.10
2018-03-06T07:34:19.096Z,3.80
2018-03-06T09:28:16.217Z,4.40
2018-03-06T09:30:18.024Z,9.40
2018-03-06T09:32:22.142Z,9.10
2018-03-06T09:36:38.934Z,9.60
2018-03-06T09:38:40.665Z,9.40
2018-03-06T09:40:44.263Z,10.00
2018-03-06T09:42:46.837Z,10.30
2018-03-06T09:44:56.806Z,10.30
2018-03-06T09:46:57.860Z,10.80
2018-03-06T09:48:58.855Z,11.00
2018-03-06T09:50:59.827Z,11.40
2018-03-06T09:53:00.937Z,11.30
2018-03-06T09:55:03.648Z,11.00
2018-03-06T09:59:16.550Z,11.10
2018-03-06T10:01:24.220Z,11.10
2018-03-06T10:03:25.630Z,11.40
2018-03-06T10:05:27.548Z,12.00
2018-03-06T10:07:30.461Z,11.70
2018-03-06T10:09:31.713Z,11.40
2018-03-06T10:11:32.780Z,10.50
2018-03-06T10:13:37.695Z,10.90
2018-03-06T10:15:38.841Z,11.30
2018-03-06T10:17:39.944Z,11.20
2018-03-06T10:19:41.019Z,11.20
2018-03-06T10:21:42.124Z,12.00
2018-03-06T10:23:43.146Z,11.70
2018-03-06T10:25:44.141Z,11.10
2018-03-06T10:30:24.987Z,12.90
2018-03-06T10:32:31.024Z,13.50
2018-03-06T10:34:34.373Z,12.10
2018-03-06T10:36:36.803Z,13.20
2018-03-06T10:38:37.917Z,13.10
2018-03-06T10:42:50.020Z,12.60
2018-03-06T10:44:53.946Z,13.50
2018-03-06T10:46:56.566Z,12.30
2018-03-06T10:49:00.551Z,12.30
2018-03-06T10:51:09.697Z,11.90
2018-03-06T10:53:10.814Z,11.20
2018-03-06T10:55:11.951Z,10.60
2018-03-06T10:57:27.610Z,11.80
2018-03-06T10:59:32.995Z,12.30
2018-03-06T11:04:13.627Z,11.80
2018-03-06T11:06:15.193Z,11.70
2018-03-06T11:08:16.230Z,12.10
2018-03-06T11:10:39.163Z,12.30
2018-03-06T11:12:41.058Z,12.20
2018-03-06T11:14:43.513Z,10.60
2018-03-06T11:19:10.264Z,10.60
2018-03-06T11:25:32.312Z,11.40
2018-03-06T11:27:33.826Z,13.10
2018-03-06T11:29:34.901Z,12.60
2018-03-06T11:31:35.884Z,12.90
2018-03-06T11:33:36.863Z,13.10
2018-03-06T11:35:37.854Z,13.10
2018-03-06T11:37:38.837Z,12.10
2018-03-06T11:39:39.848Z,13.30
2018-03-06T11:41:40.824Z,13.90
2018-03-06T11:43:41.786Z,13.40
2018-03-06T11:48:04.254Z,13.60
2018-03-06T11:50:07.728Z,14.10
2018-03-06T11:52:09.559Z,14.20
2018-03-06T11:54:11.286Z,13.50
2018-03-06T11:56:12.273Z,12.80
2018-03-06T12:00:39.826Z,13.70
2018-03-06T12:05:29.495Z,14.00
2018-03-06T12:07:44.604Z,14.80
2018-03-06T12:09:45.645Z,13.80
2018-03-06T12:11:48.095Z,15.30
2018-03-06T12:13:49.581Z,15.30
2018-03-06T12:15:50.598Z,14.40
2018-03-06T12:17:52.047Z,15.00
2018-03-06T12:19:53.672Z,15.60
2018-03-06T12:21:54.738Z,16.10
2018-03-06T12:29:23.819Z,15.40
2018-03-06T12:36:36.062Z,14.30
2018-03-06T12:38:37.624Z,14.00
2018-03-06T12:40:54.396Z,14.30
2018-03-06T12:42:55.970Z,14.90
2018-03-06T12:44:58.720Z,15.30
2018-03-06T12:46:59.762Z,15.00
2018-03-06T12:49:00.719Z,15.60
2018-03-06T12:51:08.390Z,15.30
2018-03-06T12:55:21.144Z,14.50
2018-03-06T13:00:00.305Z,13.70
2018-03-06T13:02:01.787Z,13.80
2018-03-06T13:04:02.802Z,14.10
2018-03-06T13:06:25.823Z,12.40
2018-03-06T13:08:26.906Z,13.50
2018-03-06T13:10:28.405Z,13.30
2018-03-06T13:15:14.319Z,13.90
2018-03-06T13:17:23.240Z,14.70
2018-03-06T13:19:24.288Z,15.00
2018-03-06T13:21:25.310Z,14.70
2018-03-06T13:23:26.356Z,14.20
2018-03-06T13:30:33.691Z,13.50
2018-03-06T13:37:39.737Z,13.00
2018-03-06T13:44:50.596Z,13.00
2018-03-06T13:46:54.436Z,12.50
2018-03-06T13:51:44.664Z,12.90
2018-03-06T13:56:13.065Z,12.00
2018-03-06T13:58:14.164Z,10.90
2018-03-06T14:00:15.138Z,10.80
2018-03-06T14:02:16.142Z,11.30
2018-03-06T14:06:34.565Z,10.20
2018-03-06T14:08:35.536Z,11.30
2018-03-06T14:10:37.393Z,10.90
2018-03-06T14:12:38.393Z,11.00
2018-03-06T14:14:39.359Z,10.20
2018-03-06T14:16:58.055Z,11.10
2018-03-06T14:24:03.761Z,10.90
2018-03-06T14:26:04.713Z,10.60
2018-03-06T14:28:25.738Z,10.80
2018-03-06T14:30:54.135Z,11.00
2018-03-06T14:35:25.111Z,10.40
2018-03-06T14:37:28.629Z,10.10
2018-03-06T14:39:29.690Z,10.30
2018-03-06T14:41:55.054Z,10.30
2018-03-06T14:46:34.136Z,9.20
2018-03-06T14:48:37.205Z,9.70
2018-03-06T14:50:56.798Z,9.80
2018-03-06T14:53:03.953Z,10.00
2018-03-06T14:55:07.712Z,9.20
2018-03-06T14:57:08.797Z,9.50
2018-03-06T15:01:49.439Z,9.30
2018-03-06T15:03:50.496Z,9.10
2018-03-06T15:08:36.697Z,8.80
2018-03-06T15:10:38.620Z,8.80
2018-03-06T15:12:39.733Z,8.90
2018-03-06T15:14:45.629Z,8.60
2018-03-06T15:16:46.649Z,8.40
2018-03-06T15:18:47.622Z,8.50
2018-03-06T15:20:49.220Z,8.70
2018-03-06T15:23:04.032Z,8.50
2018-03-06T15:25:05.844Z,8.40
2018-03-06T15:29:50.274Z,8.20
2018-03-06T15:31:52.008Z,8.20
2018-03-06T15:33:53.534Z,8.20
2018-03-06T15:35:54.524Z,8.20
2018-03-06T15:37:56.692Z,8.20
2018-03-06T15:40:05.272Z,7.80
2018-03-06T15:42:06.274Z,7.80
2018-03-06T15:44:07.920Z,7.80
2018-03-06T15:46:08.918Z,7.70
2018-03-06T15:51:00.092Z,7.70
2018-03-06T15:53:03.790Z,7.50
2018-03-06T15:55:19.773Z,7.40
2018-03-06T15:57:20.909Z,7.40
2018-03-06T15:59:21.901Z,7.40
2018-03-06T16:01:23.840Z,7.10
2018-03-06T16:03:25.807Z,7.10
2018-03-06T16:05:36.654Z,7.00
2018-03-06T16:07:45.717Z,6.80
2018-03-06T16:09:47.108Z,6.90
2018-03-06T16:11:59.495Z,6.60
2018-03-06T16:14:00.645Z,6.60
2018-03-06T16:16:01.620Z,6.50
2018-03-06T16:20:15.316Z,6.40
2018-03-06T16:24:58.686Z,6.50
2018-03-06T16:27:00.762Z,6.40
2018-03-06T16:29:03.908Z,6.40
2018-03-06T16:31:05.010Z,6.40
2018-03-06T16:33:06.019Z,6.20
2018-03-06T16:35:06.977Z,6.30
2018-03-06T16:37:07.948Z,6.20
2018-03-06T16:41:46.517Z,6.00
2018-03-06T16:43:47.467Z,6.10
2018-03-06T16:48:30.043Z,5.90
2018-03-06T16:50:35.036Z,5.80
2018-03-06T16:52:35.988Z,5.90
2018-03-06T16:54:47.406Z,5.90
2018-03-06T16:56:49.119Z,5.90
2018-03-06T16:58:51.988Z,5.90
2018-03-06T17:00:57.357Z,5.90
2018-03-06T17:02:58.534Z,5.70
2018-03-06T17:04:59.487Z,5.70
2018-03-06T17:07:00.439Z,5.60
2018-03-06T17:09:01.414Z,5.60
2018-03-06T17:11:03.779Z,5.60
2018-03-06T17:13:12.473Z,5.50
2018-03-06T17:15:13.781Z,5.50
2018-03-06T17:17:14.767Z,5.40
2018-03-06T17:21:34.195Z,5.20
2018-03-06T17:23:35.202Z,5.30
2018-03-06T17:25:41.622Z,5.30
2018-03-06T17:27:47.099Z,5.20
2018-03-06T17:29:48.575Z,5.30
2018-03-06T17:31:49.596Z,5.20
2018-03-06T17:33:50.583Z,5.20
2018-03-06T17:36:00.961Z,5.10
2018-03-06T17:40:12.479Z,5.10
2018-03-06T17:42:13.731Z,5.10
2018-03-06T17:44:14.709Z,5.00
2018-03-06T17:46:20.190Z,5.00
2018-03-06T17:51:00.375Z,4.80
2018-03-06T17:53:01.476Z,4.80
2018-03-06T17:55:09.851Z,4.90
2018-03-06T17:57:15.567Z,4.80
2018-03-06T17:59:17.193Z,4.80
2018-03-06T18:01:18.139Z,4.80
2018-03-06T18:05:37.044Z,4.80
2018-03-06T18:07:41.899Z,4.80
2018-03-06T18:09:49.327Z,4.80
2018-03-06T18:11:50.616Z,4.80
2018-03-06T18:13:51.604Z,4.80
2018-03-06T18:18:10.032Z,4.60
2018-03-06T18:20:11.020Z,4.50
2018-03-06T18:22:12.710Z,4.50
2018-03-06T18:24:13.697Z,4.50
2018-03-06T18:26:14.744Z,4.50
2018-03-06T18:28:15.755Z,4.50
2018-03-06T18:30:29.585Z,4.30
2018-03-06T18:32:47.344Z,4.30
2018-03-06T18:34:48.517Z,4.40
2018-03-06T18:36:57.724Z,4.30
2018-03-06T18:38:59.688Z,4.30
2018-03-06T18:43:35.804Z,4.30
2018-03-06T18:45:39.887Z,4.30
2018-03-06T18:47:41.136Z,4.20
2018-03-06T18:49:54.412Z,4.10
2018-03-06T18:51:55.525Z,4.20
2018-03-06T18:54:03.521Z,4.00
2018-03-06T18:56:04.636Z,4.00
2018-03-06T18:58:05.614Z,4.00
2018-03-06T19:05:44.635Z,4.00
2018-03-06T19:07:45.655Z,4.00
2018-03-06T19:09:46.648Z,4.10
2018-03-06T19:17:05.818Z,4.00
2018-03-06T19:19:15.227Z,3.90
2018-03-06T19:21:27.590Z,4.00
2018-03-06T19:23:44.057Z,3.90
2018-03-06T19:26:25.667Z,3.90
2018-03-06T19:28:26.722Z,3.90
2018-03-06T19:33:05.564Z,3.80
2018-03-06T19:37:38.017Z,3.80
2018-03-06T19:39:38.993Z,3.80
2018-03-06T19:41:55.236Z,3.80
2018-03-06T19:44:04.558Z,3.80
2018-03-06T19:46:05.850Z,3.70
2018-03-06T19:48:06.968Z,3.70
2018-03-06T19:50:07.935Z,3.70
2018-03-06T19:52:12.065Z,3.80
2018-03-06T19:54:13.042Z,3.80
2018-03-06T19:56:35.615Z,3.70
2018-03-06T20:01:23.483Z,3.70
2018-03-06T20:03:24.485Z,3.70
2018-03-06T20:05:25.542Z,3.70
2018-03-06T20:07:28.680Z,3.70
2018-03-06T20:14:51.072Z,3.70
2018-03-06T20:16:52.051Z,3.70
2018-03-06T20:19:00.236Z,3.60
2018-03-06T20:21:14.376Z,3.70
2018-03-06T20:23:15.363Z,3.70
2018-03-06T20:25:22.380Z,3.70
2018-03-06T20:29:50.252Z,3.60
2018-03-06T20:34:19.010Z,3.50
2018-03-06T20:36:29.253Z,3.60
2018-03-06T20:41:00.187Z,3.60
2018-03-06T20:45:38.174Z,3.50
2018-03-06T20:47:58.310Z,3.60
2018-03-06T20:55:04.513Z,3.50
2018-03-06T20:57:06.292Z,3.50
2018-03-06T21:02:11.426Z,3.50
2018-03-06T21:06:58.535Z,3.40
2018-03-06T21:13:56.806Z,3.30
2018-03-06T21:15:59.913Z,3.30
2018-03-06T21:18:08.252Z,3.40
2018-03-06T21:20:37.600Z,3.30
2018-03-06T21:22:39.215Z,3.30
2018-03-06T21:27:10.158Z,3.30
2018-03-06T21:32:29.907Z,3.30
2018-03-06T21:34:38.416Z,3.20
2018-03-06T21:36:39.477Z,3.20
2018-03-06T21:38:40.511Z,3.30
2018-03-06T21:40:41.634Z,3.20
2018-03-06T21:46:07.884Z,3.20
2018-03-06T21:50:37.097Z,3.20
2018-03-06T21:55:08.885Z,3.20
2018-03-06T21:58:09.822Z,3.20
2018-03-06T22:00:37.383Z,3.20
2018-03-06T22:05:06.296Z,3.10
2018-03-06T22:07:07.987Z,3.10
2018-03-06T22:09:09.057Z,3.10
2018-03-06T22:13:38.901Z,3.10
2018-03-06T22:18:07.725Z,3.00
2018-03-06T22:25:04.809Z,3.00
2018-03-06T22:29:53.772Z,3.00
2018-03-06T22:31:54.768Z,3.00
2018-03-06T22:41:37.615Z,2.90
2018-03-06T22:43:38.626Z,2.90
2018-03-06T22:45:40.579Z,2.90
2018-03-06T22:47:50.628Z,2.90
2018-03-06T22:49:51.861Z,2.80
2018-03-06T22:52:08.360Z,2.80
2018-03-06T22:54:32.189Z,2.70
2018-03-06T22:56:33.214Z,2.70
2018-03-06T22:58:34.226Z,2.70
2018-03-06T23:00:35.206Z,2.70
2018-03-06T23:04:57.705Z,2.70
2018-03-06T23:07:01.345Z,2.70
2018-03-06T23:09:07.978Z,2.70
2018-03-06T23:11:09.105Z,2.70
2018-03-06T23:13:10.062Z,2.70
2018-03-06T23:17:27.256Z,2.60
2018-03-06T23:22:07.021Z,2.60
2018-03-06T23:24:08.025Z,2.60
2018-03-06T23:26:41.296Z,2.60
2018-03-06T23:28:42.308Z,2.50
2018-03-06T23:36:06.019Z,2.50
2018-03-06T23:38:26.776Z,2.40
2018-03-06T23:40:28.104Z,2.40
2018-03-06T23:45:07.069Z,2.40
2018-03-06T23:47:08.096Z,2.40
2018-03-06T23:49:09.202Z,2.40
2018-03-06T23:51:10.191Z,2.40
2018-03-06T23:53:12.242Z,2.30
2018-03-06T23:55:13.284Z,2.30
2018-03-06T23:59:43.520Z,2.40
